createdAt,value
2019-03-15T00:03:55.319Z,32.64
2019-03-15T00:09:04.208Z,37.17
2019-03-15T00:14:13.224Z,33.13
2019-03-15T00:19:20.642Z,33.02
2019-03-15T00:24:28.422Z,35.56
2019-03-15T00:29:37.343Z,30.21
2019-03-15T00:34:46.324Z,36.36
2019-03-15T00:39:55.236Z,31.32
2019-03-15T00:45:04.262Z,32.55
2019-03-15T00:50:13.154Z,32.31
2019-03-15T00:55:22.215Z,31.96
2019-03-15T01:00:31.125Z,35.60
2019-03-15T01:05:40.123Z,32.91
2019-03-15T01:10:48.986Z,31.38
2019-03-15T01:15:57.911Z,30.85
2019-03-15T01:21:06.783Z,30.56
2019-03-15T01:26:15.787Z,33.92
2019-03-15T01:31:24.647Z,29.18
2019-03-15T01:36:33.579Z,30.81
2019-03-15T01:41:42.703Z,30.81
2019-03-15T01:46:51.650Z,29.34
2019-03-15T01:52:00.826Z,28.88
2019-03-15T01:57:09.744Z,28.60
2019-03-15T02:02:18.620Z,26.14
2019-03-15T02:07:27.578Z,28.97
2019-03-15T02:12:36.445Z,25.94
2019-03-15T02:17:45.410Z,23.75
2019-03-15T02:22:54.269Z,27.77
2019-03-15T02:28:03.273Z,26.90
2019-03-15T02:33:12.218Z,24.65
2019-03-15T02:38:21.163Z,24.79
2019-03-15T02:43:28.592Z,21.52
2019-03-15T02:48:37.608Z,23.02
2019-03-15T02:53:46.400Z,25.09
2019-03-15T02:58:55.304Z,23.25
2019-03-15T03:04:04.203Z,21.95
2019-03-15T03:09:13.132Z,23.84
2019-03-15T03:14:21.979Z,24.74
2019-03-15T03:19:30.935Z,22.30
2019-03-15T03:24:39.818Z,23.07
2019-03-15T03:29:48.763Z,22.17
2019-03-15T03:34:57.695Z,24.37
2019-03-15T03:40:06.659Z,22.94
2019-03-15T03:45:14.075Z,23.31
2019-03-15T03:50:23.307Z,24.96
2019-03-15T03:55:32.242Z,20.79
2019-03-15T04:00:41.200Z,21.91
2019-03-15T04:05:50.035Z,22.79
2019-03-15T04:10:58.979Z,22.59
2019-03-15T04:16:07.833Z,19.74
2019-03-15T04:21:16.784Z,22.24
2019-03-15T04:26:25.671Z,19.12
2019-03-15T04:31:34.610Z,21.90
2019-03-15T04:36:43.431Z,20.67
2019-03-15T04:41:52.447Z,18.88
2019-03-15T04:47:01.750Z,21.89
2019-03-15T04:52:10.707Z,20.22
2019-03-15T04:57:19.555Z,18.52
2019-03-15T05:02:28.625Z,20.05
2019-03-15T05:07:37.620Z,24.53
2019-03-15T05:12:47.356Z,20.54
2019-03-15T05:17:54.931Z,24.88
2019-03-15T05:23:04.039Z,21.23
2019-03-15T05:28:15.692Z,19.29
2019-03-15T05:33:14.571Z,21.27
2019-03-15T05:38:23.667Z,18.82
2019-03-15T05:43:32.666Z,17.98
2019-03-15T05:48:42.043Z,18.40
2019-03-15T05:53:50.181Z,18.47
2019-03-15T05:58:59.044Z,19.99
2019-03-15T06:04:08.264Z,22.43
2019-03-15T06:09:17.201Z,23.75
2019-03-15T06:14:26.206Z,21.76
2019-03-15T06:19:35.130Z,22.61
2019-03-15T06:24:44.125Z,22.11
2019-03-15T06:29:52.978Z,22.85
2019-03-15T06:35:01.930Z,23.31
2019-03-15T06:40:13.524Z,20.84
2019-03-15T06:45:19.395Z,19.84
2019-03-15T06:50:28.355Z,17.65
2019-03-15T06:55:37.303Z,18.43
2019-03-15T07:00:46.192Z,20.31
2019-03-15T07:05:55.156Z,21.72
2019-03-15T07:11:04.088Z,19.11
2019-03-15T07:16:13.050Z,20.32
2019-03-15T07:21:21.893Z,18.14
2019-03-15T07:26:30.946Z,17.49
2019-03-15T07:31:39.811Z,19.43
2019-03-15T07:36:48.817Z,20.58
2019-03-15T07:41:57.711Z,20.31
2019-03-15T07:47:06.770Z,16.22
2019-03-15T07:52:18.338Z,20.18
2019-03-15T07:57:17.262Z,16.87
2019-03-15T08:02:26.103Z,20.02
2019-03-15T08:07:37.694Z,20.30
2019-03-15T08:12:43.831Z,18.83
2019-03-15T08:17:52.859Z,16.78
2019-03-15T08:23:01.957Z,18.16
2019-03-15T08:28:10.957Z,16.71
2019-03-15T08:33:20.008Z,15.62
2019-03-15T08:38:29.010Z,19.40
2019-03-15T08:43:37.991Z,15.14
2019-03-15T08:48:46.989Z,16.67
2019-03-15T08:53:55.835Z,17.54
2019-03-15T08:59:04.868Z,17.53
2019-03-15T09:04:13.740Z,17.57
2019-03-15T09:09:22.707Z,20.98
2019-03-15T09:14:31.600Z,19.77
2019-03-15T09:19:40.551Z,17.76
2019-03-15T09:24:49.500Z,19.77
2019-03-15T09:29:58.637Z,16.67
2019-03-15T09:35:07.533Z,18.85
2019-03-15T09:40:16.852Z,20.91
2019-03-15T09:45:25.881Z,15.47
2019-03-15T09:50:50.058Z,15.97
2019-03-15T09:55:43.303Z,17.27
2019-03-15T10:00:52.286Z,14.37
2019-03-15T10:06:13.959Z,17.33
2019-03-15T10:11:09.765Z,17.32
2019-03-15T10:16:18.639Z,12.28
2019-03-15T10:21:28.186Z,12.24
2019-03-15T10:26:37.039Z,12.81
2019-03-15T10:31:46.047Z,12.29
2019-03-15T10:36:54.986Z,14.80
2019-03-15T10:42:03.943Z,15.62
2019-03-15T10:47:12.814Z,14.91
2019-03-15T10:52:21.740Z,11.13
2019-03-15T10:57:30.683Z,11.49
2019-03-15T11:02:39.694Z,9.87
2019-03-15T11:07:48.611Z,11.33
2019-03-15T11:12:57.536Z,10.67
2019-03-15T11:18:06.395Z,11.41
2019-03-15T11:23:15.796Z,11.47
2019-03-15T11:28:24.734Z,14.41
2019-03-15T11:33:33.770Z,13.50
2019-03-15T11:38:42.771Z,15.56
2019-03-15T11:43:51.721Z,15.79
2019-03-15T11:49:00.591Z,15.36
2019-03-15T11:54:09.535Z,12.96
2019-03-15T11:59:18.447Z,13.94
2019-03-15T12:04:27.381Z,11.45
2019-03-15T12:09:36.266Z,13.91
2019-03-15T12:14:43.817Z,15.61
2019-03-15T12:19:52.695Z,12.66
2019-03-15T12:25:00.372Z,13.33
2019-03-15T12:30:09.193Z,17.28
2019-03-15T12:35:18.463Z,16.00
2019-03-15T12:40:27.512Z,16.25
2019-03-15T12:45:36.504Z,16.39
2019-03-15T12:50:46.521Z,15.98
2019-03-15T12:55:55.283Z,6.40
2019-03-15T13:01:04.172Z,2.95
2019-03-15T13:06:13.150Z,0.99
2019-03-15T13:11:22.057Z,1.08
2019-03-15T13:16:31.025Z,0.71
2019-03-15T13:21:39.999Z,1.25
2019-03-15T13:26:49.003Z,1.89
2019-03-15T13:31:57.872Z,1.29
2019-03-15T13:37:06.826Z,0.87
2019-03-15T13:42:15.995Z,0.90
2019-03-15T13:47:24.961Z,1.17
2019-03-15T13:52:33.886Z,1.03
2019-03-15T13:57:42.843Z,0.75
2019-03-15T14:02:51.750Z,0.80
2019-03-15T14:08:11.197Z,1.00
2019-03-15T14:13:11.875Z,1.14
2019-03-15T14:18:17.774Z,1.55
2019-03-15T14:23:26.725Z,1.80
2019-03-15T14:28:35.692Z,1.30
2019-03-15T14:33:44.559Z,1.79
2019-03-15T14:38:53.684Z,1.19
2019-03-15T14:44:02.764Z,2.55
2019-03-15T14:49:11.432Z,2.13
2019-03-15T14:54:20.335Z,1.68
2019-03-15T14:59:29.308Z,1.16
2019-03-15T15:04:38.138Z,0.91
2019-03-15T15:09:47.618Z,1.38
2019-03-15T15:14:57.587Z,1.31
2019-03-15T15:20:04.105Z,1.34
2019-03-15T15:25:13.014Z,0.63
2019-03-15T15:30:25.556Z,1.30
2019-03-15T15:35:24.445Z,0.98
2019-03-15T15:40:36.548Z,1.10
2019-03-15T15:45:35.382Z,0.92
2019-03-15T15:50:44.430Z,0.81
2019-03-15T15:55:53.279Z,0.45
2019-03-15T16:01:02.175Z,0.26
2019-03-15T16:06:11.126Z,0.63
2019-03-15T16:11:20.026Z,0.39
2019-03-15T16:16:28.938Z,0.41
2019-03-15T16:21:37.885Z,0.38
2019-03-15T16:26:46.861Z,0.63
2019-03-15T16:31:55.821Z,0.48
2019-03-15T16:37:04.654Z,1.02
2019-03-15T16:42:13.512Z,0.55
2019-03-15T16:47:22.391Z,0.39
2019-03-15T16:52:31.234Z,1.19
2019-03-15T16:57:40.103Z,3.80
2019-03-15T17:02:49.034Z,1.72
2019-03-15T17:08:00.368Z,1.70
2019-03-15T17:12:59.276Z,2.19
2019-03-15T17:18:08.231Z,1.66
2019-03-15T17:23:17.246Z,1.69
2019-03-15T17:28:26.111Z,1.00
2019-03-15T17:33:35.087Z,5.60
2019-03-15T17:38:43.939Z,7.58
2019-03-15T17:43:52.926Z,0.75
2019-03-15T17:49:01.821Z,1.44
2019-03-15T17:54:10.680Z,0.87
2019-03-15T17:59:19.598Z,2.98
2019-03-15T18:04:28.500Z,4.89
2019-03-15T18:09:37.411Z,1.89
2019-03-15T18:14:46.336Z,1.70
2019-03-15T18:19:55.290Z,2.70
2019-03-15T18:25:04.178Z,2.51
2019-03-15T18:30:12.974Z,3.32
2019-03-15T18:35:32.990Z,1.54
2019-03-15T18:40:30.214Z,2.19
2019-03-15T18:45:39.053Z,1.77
2019-03-15T18:50:47.887Z,1.90
2019-03-15T18:55:57.190Z,1.46
2019-03-15T19:01:06.143Z,0.65
2019-03-15T19:06:15.124Z,2.45
2019-03-15T19:11:23.923Z,2.57
2019-03-15T19:16:32.787Z,18.76
2019-03-15T19:21:41.675Z,16.39
2019-03-15T19:26:50.547Z,15.98
2019-03-15T19:31:59.427Z,14.06
2019-03-15T19:37:08.327Z,11.09
2019-03-15T19:42:17.247Z,26.85
2019-03-15T19:47:26.174Z,49.94
2019-03-15T19:52:35.066Z,39.78
2019-03-15T19:57:44.024Z,38.77
2019-03-15T20:02:53.043Z,25.63
2019-03-15T20:08:01.998Z,17.77
2019-03-15T20:13:11.028Z,19.29
2019-03-15T20:18:21.079Z,14.26
2019-03-15T20:23:28.421Z,11.68
2019-03-15T20:28:37.315Z,10.78
2019-03-15T20:33:47.043Z,13.75
2019-03-15T20:38:56.051Z,12.80
2019-03-15T20:44:05.155Z,10.24
2019-03-15T20:49:14.001Z,9.59
2019-03-15T20:54:23.099Z,9.70
2019-03-15T20:59:31.432Z,12.65
2019-03-15T21:04:40.355Z,23.23
2019-03-15T21:09:49.499Z,32.00
2019-03-15T21:14:58.919Z,39.49
2019-03-15T21:20:08.070Z,37.46
2019-03-15T21:25:17.094Z,35.26
2019-03-15T21:30:26.147Z,31.63
2019-03-15T21:35:35.115Z,28.44
2019-03-15T21:40:44.063Z,29.11
2019-03-15T21:45:52.982Z,23.54
2019-03-15T21:51:01.802Z,21.17
2019-03-15T21:56:10.678Z,24.79
2019-03-15T22:01:19.582Z,20.72
2019-03-15T22:06:28.550Z,23.48
2019-03-15T22:11:37.455Z,21.09
2019-03-15T22:16:46.331Z,21.55
2019-03-15T22:21:55.267Z,19.61
2019-03-15T22:27:04.262Z,18.34
2019-03-15T22:32:13.362Z,18.87
2019-03-15T22:37:22.277Z,22.23
2019-03-15T22:42:31.226Z,15.13
2019-03-15T22:47:40.302Z,15.34
2019-03-15T22:52:49.380Z,15.35
2019-03-15T22:58:00.083Z,15.56
2019-03-15T23:03:06.930Z,17.09
2019-03-15T23:08:16.265Z,18.04
2019-03-15T23:13:25.284Z,20.03
2019-03-15T23:18:34.355Z,20.56
2019-03-15T23:23:43.442Z,19.27
2019-03-15T23:28:52.441Z,17.33
2019-03-15T23:34:01.390Z,16.04
2019-03-15T23:39:10.358Z,19.11
2019-03-15T23:44:19.381Z,16.35
2019-03-15T23:49:28.400Z,20.38
2019-03-15T23:54:37.391Z,17.90
2019-03-15T23:59:46.339Z,17.53
